createdAt,value
2017-07-23T00:00:51.307Z,29.10
2017-07-23T00:03:18.781Z,29.10
2017-07-23T00:05:47.015Z,29.10
2017-07-23T00:08:14.702Z,29.10
2017-07-23T00:10:42.158Z,29.10
2017-07-23T00:13:09.619Z,29.10
2017-07-23T00:15:37.082Z,29.10
2017-07-23T00:18:05.313Z,29.00
2017-07-23T00:20:32.767Z,29.00
2017-07-23T00:23:00.239Z,29.00
2017-07-23T00:25:27.840Z,29.00
2017-07-23T00:27:55.315Z,29.00
2017-07-23T00:30:22.799Z,29.00
2017-07-23T00:32:50.275Z,29.00
2017-07-23T00:35:17.765Z,29.00
2017-07-23T00:37:45.993Z,29.00
2017-07-23T00:40:13.481Z,29.00
2017-07-23T00:42:40.942Z,29.00
2017-07-23T00:45:08.407Z,29.00
2017-07-23T00:47:36.641Z,29.00
2017-07-23T00:50:04.114Z,28.90
2017-07-23T00:52:31.573Z,29.00
2017-07-23T00:54:59.055Z,28.90
2017-07-23T00:57:26.542Z,29.00
2017-07-23T00:59:54.002Z,28.90
2017-07-23T01:02:21.493Z,28.90
2017-07-23T01:04:49.083Z,28.90
2017-07-23T01:07:16.577Z,28.90
2017-07-23T01:09:44.049Z,28.90
2017-07-23T01:12:11.502Z,28.90
2017-07-23T01:14:38.966Z,28.90
2017-07-23T01:17:06.455Z,28.90
2017-07-23T01:19:33.950Z,28.90
2017-07-23T01:22:01.432Z,28.90
2017-07-23T01:24:28.889Z,28.90
2017-07-23T01:26:56.354Z,28.90
2017-07-23T01:29:23.817Z,28.80
2017-07-23T01:31:51.297Z,28.90
2017-07-23T01:34:18.788Z,28.90
2017-07-23T01:36:46.281Z,28.90
2017-07-23T01:39:13.736Z,28.80
2017-07-23T01:41:41.219Z,28.80
2017-07-23T01:44:08.705Z,28.90
2017-07-23T01:46:36.172Z,28.80
2017-07-23T01:49:05.239Z,28.80
2017-07-23T01:51:32.696Z,28.80
2017-07-23T01:54:00.156Z,28.80
2017-07-23T01:56:27.645Z,28.80
2017-07-23T01:58:55.409Z,28.80
2017-07-23T02:01:22.860Z,28.80
2017-07-23T02:03:50.335Z,28.80
2017-07-23T02:06:17.804Z,28.80
2017-07-23T02:08:45.283Z,28.80
2017-07-23T02:11:12.740Z,28.80
2017-07-23T02:13:40.201Z,28.80
2017-07-23T02:16:07.679Z,28.80
2017-07-23T02:18:35.149Z,28.80
2017-07-23T02:21:02.602Z,28.80
2017-07-23T02:23:30.074Z,28.80
2017-07-23T02:25:57.547Z,28.80
2017-07-23T02:28:25.774Z,28.70
2017-07-23T02:30:53.244Z,28.70
2017-07-23T02:33:20.698Z,28.70
2017-07-23T02:35:48.191Z,28.70
2017-07-23T02:38:15.646Z,28.70
2017-07-23T02:40:43.125Z,28.70
2017-07-23T02:43:10.605Z,28.70
2017-07-23T02:45:38.082Z,28.70
2017-07-23T02:48:06.309Z,28.60
2017-07-23T02:50:33.778Z,28.60
2017-07-23T02:53:01.243Z,28.60
2017-07-23T02:55:28.694Z,28.60
2017-07-23T02:57:56.159Z,28.60
2017-07-23T03:00:23.618Z,28.60
2017-07-23T03:02:51.083Z,28.60
2017-07-23T03:05:18.563Z,28.60
2017-07-23T03:07:46.024Z,28.50
2017-07-23T03:10:13.524Z,28.50
2017-07-23T03:12:41.021Z,28.50
2017-07-23T03:15:08.492Z,28.50
2017-07-23T03:17:35.948Z,28.50
2017-07-23T03:20:03.445Z,28.50
2017-07-23T03:22:31.669Z,28.50
2017-07-23T03:24:59.143Z,28.50
2017-07-23T03:27:26.614Z,28.50
2017-07-23T03:29:54.071Z,28.50
2017-07-23T03:32:21.528Z,28.50
2017-07-23T03:34:48.996Z,28.50
2017-07-23T03:37:16.456Z,28.50
2017-07-23T03:39:43.939Z,28.40
2017-07-23T03:42:11.410Z,28.40
2017-07-23T03:44:38.897Z,28.40
2017-07-23T03:47:06.358Z,28.40
2017-07-23T03:49:33.836Z,28.40
2017-07-23T03:52:01.301Z,28.30
2017-07-23T03:54:29.547Z,28.40
2017-07-23T03:56:57.042Z,28.30
2017-07-23T03:59:25.268Z,28.40
2017-07-23T04:01:52.783Z,28.30
2017-07-23T04:04:20.241Z,28.30
2017-07-23T04:06:48.475Z,28.30
2017-07-23T04:09:15.927Z,28.30
2017-07-23T04:11:43.403Z,28.30
2017-07-23T04:14:10.888Z,28.30
2017-07-23T04:16:38.372Z,28.30
2017-07-23T04:19:05.851Z,28.30
2017-07-23T04:21:33.321Z,28.30
2017-07-23T04:24:00.781Z,28.30
2017-07-23T04:26:28.261Z,28.20
2017-07-23T04:28:55.742Z,28.30
2017-07-23T04:31:23.961Z,28.20
2017-07-23T04:33:51.436Z,28.20
2017-07-23T04:36:18.964Z,28.30
2017-07-23T04:38:46.461Z,28.30
2017-07-23T04:41:13.933Z,28.20
2017-07-23T04:43:41.391Z,28.30
2017-07-23T04:46:08.842Z,28.20
2017-07-23T04:48:44.491Z,28.20
2017-07-23T04:51:11.952Z,28.20
2017-07-23T04:53:39.398Z,28.20
2017-07-23T04:56:06.873Z,28.20
2017-07-23T04:58:35.119Z,28.20
2017-07-23T05:01:02.602Z,28.20
2017-07-23T05:03:30.097Z,28.20
2017-07-23T05:05:57.553Z,28.20
2017-07-23T05:08:25.022Z,28.20
2017-07-23T05:10:52.474Z,28.20
2017-07-23T05:13:19.942Z,28.20
2017-07-23T05:15:47.405Z,28.20
2017-07-23T05:18:14.860Z,28.20
2017-07-23T05:20:42.942Z,28.20
2017-07-23T05:23:10.434Z,28.20
2017-07-23T05:25:44.626Z,28.10
2017-07-23T05:28:12.100Z,28.10
2017-07-23T05:30:39.824Z,28.20
2017-07-23T05:33:07.409Z,28.20
2017-07-23T05:35:34.885Z,28.10
2017-07-23T05:38:02.381Z,28.10
2017-07-23T05:40:29.875Z,28.10
2017-07-23T05:42:57.512Z,28.10
2017-07-23T05:45:24.972Z,28.10
2017-07-23T05:47:52.427Z,28.10
2017-07-23T05:50:23.529Z,28.10
2017-07-23T05:52:50.987Z,28.10
2017-07-23T05:55:18.450Z,28.10
2017-07-23T05:57:45.948Z,28.10
2017-07-23T06:00:15.674Z,28.10
2017-07-23T06:02:43.155Z,28.10
2017-07-23T06:05:11.756Z,28.10
2017-07-23T06:07:39.372Z,28.10
2017-07-23T06:10:07.447Z,28.10
2017-07-23T06:12:35.366Z,28.10
2017-07-23T06:15:05.766Z,28.10
2017-07-23T06:17:33.228Z,28.10
2017-07-23T06:20:00.685Z,28.00
2017-07-23T06:25:04.346Z,28.00
2017-07-23T06:27:33.438Z,28.00
2017-07-23T06:30:00.976Z,28.10
2017-07-23T06:32:28.655Z,28.20
2017-07-23T06:34:56.141Z,28.20
2017-07-23T06:37:25.751Z,28.20
2017-07-23T06:39:53.265Z,28.20
2017-07-23T06:42:20.849Z,28.30
2017-07-23T06:44:48.321Z,28.20
2017-07-23T06:47:16.617Z,28.20
2017-07-23T06:49:44.187Z,28.20
2017-07-23T06:52:11.686Z,28.20
2017-07-23T06:54:39.284Z,28.20
2017-07-23T06:57:07.991Z,28.20
2017-07-23T06:59:36.835Z,28.30
2017-07-23T07:02:07.525Z,28.30
2017-07-23T07:04:36.209Z,28.30
2017-07-23T07:07:05.294Z,28.30
2017-07-23T07:09:33.473Z,28.30
2017-07-23T07:12:00.923Z,28.40
2017-07-23T07:14:28.399Z,28.40
2017-07-23T07:16:55.850Z,28.50
2017-07-23T07:19:23.305Z,28.60
2017-07-23T07:21:50.791Z,28.70
2017-07-23T07:24:18.267Z,28.80
2017-07-23T07:26:45.737Z,28.80
2017-07-23T07:29:13.682Z,28.80
2017-07-23T07:31:41.139Z,28.80
2017-07-23T07:34:08.597Z,28.90
2017-07-23T07:36:36.243Z,28.90
2017-07-23T07:39:03.691Z,28.90
2017-07-23T07:41:31.244Z,28.90
2017-07-23T07:44:00.161Z,28.90
2017-07-23T07:46:28.447Z,28.90
2017-07-23T07:48:55.935Z,29.00
2017-07-23T07:51:23.588Z,29.20
2017-07-23T07:53:52.362Z,29.30
2017-07-23T07:56:19.833Z,29.40
2017-07-23T07:58:47.328Z,29.40
2017-07-23T08:01:14.779Z,29.40
2017-07-23T08:03:42.267Z,29.50
2017-07-23T08:06:09.731Z,29.60
2017-07-23T08:08:37.198Z,29.60
2017-07-23T08:11:04.650Z,29.70
2017-07-23T08:13:32.124Z,29.70
2017-07-23T08:15:59.602Z,29.70
2017-07-23T08:18:27.059Z,29.80
2017-07-23T08:20:54.534Z,29.80
2017-07-23T08:23:22.017Z,29.90
2017-07-23T08:25:49.490Z,30.00
2017-07-23T08:28:16.964Z,30.00
2017-07-23T08:30:44.436Z,30.10
2017-07-23T08:33:11.946Z,30.30
2017-07-23T08:35:39.425Z,30.40
2017-07-23T08:38:06.901Z,30.50
2017-07-23T08:40:34.349Z,30.60
2017-07-23T08:43:01.833Z,30.70
2017-07-23T08:45:29.280Z,30.90
2017-07-23T08:47:56.752Z,31.00
2017-07-23T08:50:24.228Z,31.00
2017-07-23T08:52:51.703Z,31.10
2017-07-23T08:55:19.164Z,31.10
2017-07-23T08:57:46.627Z,31.20
2017-07-23T09:00:14.091Z,31.30
2017-07-23T09:02:41.562Z,31.40
2017-07-23T09:05:09.012Z,31.50
2017-07-23T09:07:36.475Z,31.50
2017-07-23T09:10:03.937Z,31.70
2017-07-23T09:12:31.388Z,31.60
2017-07-23T09:14:58.878Z,31.60
2017-07-23T09:17:26.368Z,31.50
2017-07-23T09:19:53.862Z,31.40
2017-07-23T09:22:21.311Z,31.40
2017-07-23T09:24:48.775Z,31.20
2017-07-23T09:27:16.232Z,31.10
2017-07-23T09:29:43.727Z,31.00
2017-07-23T09:32:11.181Z,30.90
2017-07-23T09:34:38.672Z,30.90
2017-07-23T09:37:06.146Z,30.70
2017-07-23T09:39:33.599Z,30.70
2017-07-23T09:42:01.072Z,30.70
2017-07-23T09:44:28.563Z,30.70
2017-07-23T09:46:56.064Z,30.70
2017-07-23T09:49:23.527Z,30.70
2017-07-23T09:51:51.016Z,30.80
2017-07-23T09:54:18.484Z,30.90
2017-07-23T09:56:45.969Z,30.90
2017-07-23T09:59:13.424Z,30.90
2017-07-23T10:01:40.881Z,30.90
2017-07-23T10:04:08.378Z,30.90
2017-07-23T10:06:35.844Z,31.00
2017-07-23T10:09:03.299Z,31.00
2017-07-23T10:11:30.775Z,31.20
2017-07-23T10:13:58.262Z,31.40
2017-07-23T10:16:25.740Z,31.70
2017-07-23T10:18:53.200Z,31.70
2017-07-23T10:21:20.693Z,31.90
2017-07-23T10:23:48.191Z,32.00
2017-07-23T10:26:15.648Z,32.20
2017-07-23T10:28:43.107Z,32.30
2017-07-23T10:31:10.598Z,32.30
2017-07-23T10:33:38.047Z,32.50
2017-07-23T10:36:05.571Z,32.70
2017-07-23T10:38:33.037Z,32.80
2017-07-23T10:41:00.513Z,32.80
2017-07-23T10:43:27.970Z,32.80
2017-07-23T10:45:55.430Z,32.60
2017-07-23T10:48:22.895Z,32.30
2017-07-23T10:50:50.384Z,32.00
2017-07-23T10:53:17.858Z,31.80
2017-07-23T10:55:45.334Z,31.50
2017-07-23T10:58:12.809Z,31.30
2017-07-23T11:00:40.262Z,31.10
2017-07-23T11:03:07.725Z,31.00
2017-07-23T11:05:35.189Z,30.80
2017-07-23T11:08:02.645Z,30.80
2017-07-23T11:10:30.098Z,30.70
2017-07-23T11:12:57.558Z,30.70
2017-07-23T11:15:25.008Z,30.60
2017-07-23T11:17:52.465Z,30.60
2017-07-23T11:20:19.922Z,30.70
2017-07-23T11:22:47.401Z,30.70
2017-07-23T11:25:14.862Z,30.70
2017-07-23T11:27:42.319Z,30.80
2017-07-23T11:30:09.790Z,30.90
2017-07-23T11:32:37.241Z,31.40
2017-07-23T11:35:04.713Z,32.20
2017-07-23T11:37:32.172Z,33.70
2017-07-23T11:39:59.649Z,35.10
2017-07-23T11:42:27.121Z,36.30
2017-07-23T11:44:54.587Z,37.30
2017-07-23T11:47:22.060Z,38.10
2017-07-23T11:49:49.531Z,38.60
2017-07-23T11:52:17.005Z,39.30
2017-07-23T11:54:44.495Z,39.90
2017-07-23T11:57:11.947Z,39.50
2017-07-23T11:59:39.402Z,39.90
2017-07-23T12:02:06.891Z,40.00
2017-07-23T12:04:34.341Z,40.60
2017-07-23T12:07:01.815Z,41.00
2017-07-23T12:09:29.299Z,40.20
2017-07-23T12:11:56.775Z,39.00
2017-07-23T12:14:24.237Z,38.60
2017-07-23T12:16:51.705Z,39.40
2017-07-23T12:19:19.157Z,40.30
2017-07-23T12:21:46.669Z,41.10
2017-07-23T12:24:14.119Z,41.60
2017-07-23T12:26:41.616Z,42.00
2017-07-23T12:29:09.093Z,42.30
2017-07-23T12:31:36.573Z,42.50
2017-07-23T12:34:04.041Z,42.60
2017-07-23T12:36:31.505Z,42.70
2017-07-23T12:38:58.974Z,42.70
2017-07-23T12:41:26.437Z,42.70
2017-07-23T12:43:53.887Z,42.70
2017-07-23T12:46:21.389Z,42.20
2017-07-23T12:48:48.863Z,41.70
2017-07-23T12:51:16.335Z,41.60
2017-07-23T12:53:43.790Z,41.50
2017-07-23T12:56:11.243Z,41.50
2017-07-23T12:58:38.755Z,40.80
2017-07-23T13:01:06.236Z,39.70
2017-07-23T13:03:33.693Z,38.70
2017-07-23T13:06:01.182Z,37.90
2017-07-23T13:08:28.640Z,37.30
2017-07-23T13:10:56.104Z,36.80
2017-07-23T13:13:23.580Z,36.80
2017-07-23T13:15:51.068Z,37.10
2017-07-23T13:18:18.541Z,37.00
2017-07-23T13:20:46.048Z,37.30
2017-07-23T13:23:13.587Z,37.30
2017-07-23T13:25:41.061Z,37.80
2017-07-23T13:28:08.554Z,37.80
2017-07-23T13:30:36.045Z,37.30
2017-07-23T13:33:03.520Z,36.70
2017-07-23T13:35:30.988Z,36.20
2017-07-23T13:37:58.462Z,35.60
2017-07-23T13:40:25.920Z,35.30
2017-07-23T13:42:53.403Z,34.90
2017-07-23T13:45:20.889Z,35.20
2017-07-23T13:47:48.339Z,36.00
2017-07-23T13:50:15.811Z,37.20
2017-07-23T13:52:43.282Z,37.90
2017-07-23T13:55:10.772Z,38.20
2017-07-23T13:57:38.260Z,38.70
2017-07-23T14:00:05.748Z,38.40
2017-07-23T14:02:33.223Z,37.40
2017-07-23T14:05:00.727Z,36.50
2017-07-23T14:07:28.183Z,35.80
2017-07-23T14:09:55.694Z,35.10
2017-07-23T14:12:23.183Z,34.60
2017-07-23T14:14:50.644Z,34.20
2017-07-23T14:17:18.124Z,33.90
2017-07-23T14:19:45.586Z,33.60
2017-07-23T14:22:13.100Z,33.60
2017-07-23T14:24:40.563Z,34.10
2017-07-23T14:27:08.070Z,33.90
2017-07-23T14:29:35.752Z,33.90
2017-07-23T14:32:03.224Z,33.90
2017-07-23T14:34:30.717Z,33.70
2017-07-23T14:36:58.193Z,33.50
2017-07-23T14:39:25.684Z,33.20
2017-07-23T14:41:53.176Z,32.80
2017-07-23T14:44:20.682Z,32.60
2017-07-23T14:46:48.144Z,32.50
2017-07-23T14:49:15.623Z,32.40
2017-07-23T14:51:43.091Z,32.30
2017-07-23T14:54:10.582Z,32.20
2017-07-23T14:56:38.043Z,32.20
2017-07-23T14:59:05.512Z,32.20
2017-07-23T15:01:32.981Z,32.30
2017-07-23T15:04:00.463Z,32.40
2017-07-23T15:06:27.941Z,32.30
2017-07-23T15:08:55.415Z,32.20
2017-07-23T15:11:22.912Z,32.10
2017-07-23T15:13:50.381Z,31.90
2017-07-23T15:16:17.854Z,31.80
2017-07-23T15:18:45.368Z,31.70
2017-07-23T15:21:12.855Z,31.60
2017-07-23T15:23:40.322Z,31.50
2017-07-23T15:26:07.798Z,31.50
2017-07-23T15:28:35.267Z,31.50
2017-07-23T15:31:02.804Z,31.40
2017-07-23T15:33:30.287Z,31.40
2017-07-23T15:35:57.783Z,31.30
2017-07-23T15:38:25.318Z,31.30
2017-07-23T15:40:52.795Z,31.20
2017-07-23T15:43:20.265Z,31.20
2017-07-23T15:45:47.748Z,31.20
2017-07-23T15:48:15.418Z,31.20
2017-07-23T15:50:42.888Z,31.20
2017-07-23T15:53:10.373Z,31.30
2017-07-23T15:55:37.841Z,31.30
2017-07-23T15:58:05.334Z,31.30
2017-07-23T16:00:32.852Z,31.40
2017-07-23T16:03:00.337Z,31.30
2017-07-23T16:05:27.814Z,31.30
2017-07-23T16:07:55.295Z,31.20
2017-07-23T16:10:22.784Z,31.20
2017-07-23T16:12:50.297Z,31.20
2017-07-23T16:15:17.788Z,31.20
2017-07-23T16:17:45.266Z,31.10
2017-07-23T16:20:12.754Z,31.10
2017-07-23T16:22:40.221Z,31.20
2017-07-23T16:25:07.729Z,31.20
2017-07-23T16:27:35.200Z,31.20
2017-07-23T16:30:02.675Z,31.10
2017-07-23T16:32:30.140Z,31.10
2017-07-23T16:34:57.626Z,31.10
2017-07-23T16:37:25.098Z,31.10
2017-07-23T16:39:52.561Z,31.10
2017-07-23T16:42:20.065Z,31.00
2017-07-23T16:44:47.535Z,30.90
2017-07-23T16:47:15.015Z,30.90
2017-07-23T16:49:42.526Z,30.80
2017-07-23T16:52:10.010Z,30.80
2017-07-23T16:54:37.485Z,30.70
2017-07-23T16:57:04.982Z,30.70
2017-07-23T16:59:32.504Z,30.60
2017-07-23T17:02:00.021Z,30.60
2017-07-23T17:04:27.500Z,30.60
2017-07-23T17:06:54.991Z,30.60
2017-07-23T17:09:22.485Z,30.50
2017-07-23T17:11:49.943Z,30.50
2017-07-23T17:14:17.473Z,30.50
2017-07-23T17:16:44.956Z,30.40
2017-07-23T17:19:12.451Z,30.30
2017-07-23T17:21:39.924Z,30.20
2017-07-23T17:24:07.408Z,30.20
2017-07-23T17:26:34.884Z,30.10
2017-07-23T17:29:02.372Z,30.10
2017-07-23T17:31:29.830Z,30.00
2017-07-23T17:33:57.401Z,30.00
2017-07-23T17:36:24.886Z,29.90
2017-07-23T17:38:52.356Z,29.90
2017-07-23T17:41:19.835Z,29.90
2017-07-23T17:43:47.296Z,29.80
2017-07-23T17:46:14.779Z,29.80
2017-07-23T17:48:42.255Z,29.80
2017-07-23T17:51:09.746Z,29.70
2017-07-23T17:53:37.267Z,29.70
2017-07-23T17:56:04.788Z,29.70
2017-07-23T17:58:32.252Z,29.70
2017-07-23T18:00:59.733Z,29.60
2017-07-23T18:03:27.221Z,29.60
2017-07-23T18:05:54.692Z,29.60
2017-07-23T18:08:22.222Z,29.60
2017-07-23T18:10:49.680Z,29.50
2017-07-23T18:13:17.230Z,29.50
2017-07-23T18:15:44.730Z,29.50
2017-07-23T18:18:12.229Z,29.50
2017-07-23T18:20:39.718Z,29.50
2017-07-23T18:23:07.244Z,29.40
2017-07-23T18:25:34.718Z,29.40
2017-07-23T18:28:02.220Z,29.40
2017-07-23T18:30:29.720Z,29.40
2017-07-23T18:32:57.213Z,29.40
2017-07-23T18:35:24.725Z,29.30
2017-07-23T18:37:52.198Z,29.30
2017-07-23T18:40:19.729Z,29.30
2017-07-23T18:42:47.241Z,29.20
2017-07-23T18:45:14.776Z,29.20
2017-07-23T18:47:42.248Z,29.20
2017-07-23T18:50:09.757Z,29.10
2017-07-23T18:52:37.234Z,29.10
2017-07-23T18:55:04.779Z,29.10
2017-07-23T18:57:32.259Z,29.00
2017-07-23T18:59:59.734Z,29.00
2017-07-23T19:02:27.231Z,29.00
2017-07-23T19:04:54.718Z,29.00
2017-07-23T19:07:22.200Z,29.00
2017-07-23T19:09:49.681Z,28.90
2017-07-23T19:12:17.172Z,28.90
2017-07-23T19:14:44.655Z,28.90
2017-07-23T19:17:12.148Z,28.90
2017-07-23T19:19:39.606Z,28.80
2017-07-23T19:22:07.092Z,28.80
2017-07-23T19:24:34.609Z,28.80
2017-07-23T19:27:02.092Z,28.80
2017-07-23T19:29:29.564Z,28.70
2017-07-23T19:31:57.037Z,28.70
2017-07-23T19:34:24.549Z,28.70
2017-07-23T19:36:52.049Z,28.70
2017-07-23T19:39:19.555Z,28.70
2017-07-23T19:41:47.047Z,28.70
2017-07-23T19:44:14.537Z,28.70
2017-07-23T19:46:42.000Z,28.70
2017-07-23T19:49:09.482Z,28.70
2017-07-23T19:51:36.956Z,28.60
2017-07-23T19:54:04.501Z,28.60
2017-07-23T19:56:31.990Z,28.60
2017-07-23T19:58:59.468Z,28.60
2017-07-23T20:01:26.959Z,28.60
2017-07-23T20:03:54.441Z,28.60
2017-07-23T20:06:21.949Z,28.60
2017-07-23T20:08:49.453Z,28.50
2017-07-23T20:11:16.982Z,28.50
2017-07-23T20:13:44.502Z,28.50
2017-07-23T20:16:12.018Z,28.50
2017-07-23T20:18:39.483Z,28.50
2017-07-23T20:21:07.004Z,28.50
2017-07-23T20:23:34.492Z,28.40
2017-07-23T20:26:01.958Z,28.40
2017-07-23T20:28:29.434Z,28.40
2017-07-23T20:30:56.908Z,28.40
2017-07-23T20:33:24.384Z,28.40
2017-07-23T20:35:51.873Z,28.40
2017-07-23T20:38:19.368Z,28.30
2017-07-23T20:40:46.838Z,28.30
2017-07-23T20:43:14.346Z,28.30
2017-07-23T20:45:41.834Z,28.30
2017-07-23T20:48:09.364Z,28.30
2017-07-23T20:50:36.856Z,28.30
2017-07-23T20:53:04.340Z,28.30
2017-07-23T20:55:31.835Z,28.30
2017-07-23T20:57:59.347Z,28.30
2017-07-23T21:00:26.827Z,28.30
2017-07-23T21:02:54.304Z,28.20
2017-07-23T21:05:21.787Z,27.30
2017-07-23T21:07:49.267Z,26.00
2017-07-23T21:10:16.742Z,25.10
2017-07-23T21:12:44.207Z,24.50
2017-07-23T21:15:11.677Z,24.10
2017-07-23T21:17:39.411Z,23.70
2017-07-23T21:20:06.943Z,23.20
2017-07-23T21:22:34.407Z,23.00
2017-07-23T21:25:01.890Z,23.00
2017-07-23T21:27:29.362Z,22.70
2017-07-23T21:29:56.810Z,22.50
2017-07-23T21:32:24.319Z,22.30
2017-07-23T21:34:51.801Z,22.00
2017-07-23T21:37:19.315Z,21.80
2017-07-23T21:39:46.796Z,21.80
2017-07-23T21:42:14.304Z,21.40
2017-07-23T21:44:41.795Z,21.30
2017-07-23T21:47:09.308Z,21.30
2017-07-23T21:49:36.770Z,21.30
2017-07-23T21:52:04.223Z,21.40
2017-07-23T21:54:31.701Z,21.70
2017-07-23T21:56:59.169Z,21.60
2017-07-23T21:59:26.645Z,21.70
2017-07-23T22:01:54.106Z,21.90
2017-07-23T22:04:21.589Z,21.90
2017-07-23T22:06:49.047Z,22.00
2017-07-23T22:09:16.524Z,22.00
2017-07-23T22:11:43.997Z,22.00
2017-07-23T22:14:11.516Z,21.90
2017-07-23T22:16:38.981Z,22.00
2017-07-23T22:19:06.462Z,21.80
2017-07-23T22:21:33.960Z,22.00
2017-07-23T22:24:01.499Z,22.50
2017-07-23T22:26:28.990Z,22.90
2017-07-23T22:28:56.425Z,23.20
2017-07-23T22:31:23.886Z,23.50
2017-07-23T22:33:51.373Z,23.60
2017-07-23T22:36:18.842Z,23.80
2017-07-23T22:38:46.336Z,23.90
2017-07-23T22:41:13.813Z,24.00
2017-07-23T22:43:41.264Z,24.10
2017-07-23T22:46:08.779Z,24.20
2017-07-23T22:48:36.249Z,24.20
2017-07-23T22:51:03.714Z,24.30
2017-07-23T22:53:31.188Z,24.40
2017-07-23T22:55:58.643Z,24.40
2017-07-23T22:58:26.109Z,24.40
2017-07-23T23:00:53.552Z,24.40
2017-07-23T23:03:21.032Z,24.50
2017-07-23T23:05:48.481Z,24.40
2017-07-23T23:08:15.966Z,24.50
2017-07-23T23:10:43.421Z,24.50
2017-07-23T23:13:10.904Z,24.50
2017-07-23T23:15:38.382Z,24.50
2017-07-23T23:18:05.867Z,24.50
2017-07-23T23:20:33.314Z,24.50
2017-07-23T23:23:00.774Z,24.50
2017-07-23T23:25:28.268Z,24.50
2017-07-23T23:27:55.735Z,24.50
2017-07-23T23:30:23.225Z,24.50
2017-07-23T23:32:50.735Z,24.50
2017-07-23T23:35:18.196Z,24.50
2017-07-23T23:37:45.653Z,24.50
2017-07-23T23:40:13.141Z,24.50
2017-07-23T23:42:40.612Z,24.50
2017-07-23T23:45:08.100Z,24.50
2017-07-23T23:47:35.628Z,24.50
2017-07-23T23:50:03.082Z,24.50
2017-07-23T23:52:30.544Z,24.50
2017-07-23T23:54:58.025Z,24.50
2017-07-23T23:57:25.485Z,24.50
2017-07-23T23:59:52.984Z,24.50
